地図

経路データ

SID SEASON NUMBER BASIN SUBBASIN NAME ISO_TIME NATURE LAT LON WMO_WIND WMO_PRES WMO_AGENCY TRACK_TYPE DIST2LAND LANDFALL IFLAG USA_AGENCY USA_ATCF_ID USA_LAT USA_LON USA_RECORD USA_STATUS USA_WIND USA_PRES USA_SSHS USA_R34_NE USA_R34_SE USA_R34_SW USA_R34_NW USA_R50_NE USA_R50_SE USA_R50_SW USA_R50_NW USA_R64_NE USA_R64_SE USA_R64_SW USA_R64_NW USA_POCI USA_ROCI USA_RMW USA_EYE TOKYO_LAT TOKYO_LON TOKYO_GRADE TOKYO_WIND TOKYO_PRES TOKYO_R50_DIR TOKYO_R50_LONG TOKYO_R50_SHORT TOKYO_R30_DIR TOKYO_R30_LONG TOKYO_R30_SHORT TOKYO_LAND CMA_LAT CMA_LON CMA_CAT CMA_WIND CMA_PRES HKO_LAT HKO_LON HKO_CAT HKO_WIND HKO_PRES NEWDELHI_LAT NEWDELHI_LON NEWDELHI_GRADE NEWDELHI_WIND NEWDELHI_PRES NEWDELHI_CI NEWDELHI_DP NEWDELHI_POCI REUNION_LAT REUNION_LON REUNION_TYPE REUNION_WIND REUNION_PRES REUNION_TNUM REUNION_CI REUNION_RMW REUNION_R34_NE REUNION_R34_SE REUNION_R34_SW REUNION_R34_NW REUNION_R50_NE REUNION_R50_SE REUNION_R50_SW REUNION_R50_NW REUNION_R64_NE REUNION_R64_SE REUNION_R64_SW REUNION_R64_NW BOM_LAT BOM_LON BOM_TYPE BOM_WIND BOM_PRES BOM_TNUM BOM_CI BOM_RMW BOM_R34_NE BOM_R34_SE BOM_R34_SW BOM_R34_NW BOM_R50_NE BOM_R50_SE BOM_R50_SW BOM_R50_NW BOM_R64_NE BOM_R64_SE BOM_R64_SW BOM_R64_NW BOM_ROCI BOM_POCI BOM_EYE BOM_POS_METHOD BOM_PRES_METHOD NADI_LAT NADI_LON NADI_CAT NADI_WIND NADI_PRES WELLINGTON_LAT WELLINGTON_LON WELLINGTON_WIND WELLINGTON_PRES DS824_LAT DS824_LON DS824_STAGE DS824_WIND DS824_PRES TD9636_LAT TD9636_LON TD9636_STAGE TD9636_WIND TD9636_PRES TD9635_LAT TD9635_LON TD9635_WIND TD9635_PRES TD9635_ROCI NEUMANN_LAT NEUMANN_LON NEUMANN_CLASS NEUMANN_WIND NEUMANN_PRES MLC_LAT MLC_LON MLC_CLASS MLC_WIND MLC_PRES USA_GUST BOM_GUST BOM_GUST_PER REUNION_GUST REUNION_GUST_PER USA_SEAHGT USA_SEARAD_NE USA_SEARAD_SE USA_SEARAD_SW USA_SEARAD_NW STORM_SPEED STORM_DIR
1887326N12284 1887 72 NA CS NOT_NAMED 1887-11-21 12:00:00 TS 12.0000 -76.0000 spur-merge 154 154 _____________O -1 12.0000 -76.0000 TD 30 0 0
1887326N12284 1887 72 NA CS NOT_NAMED 1887-11-21 15:00:00 TS 12.0000 -76.0000 spur-merge 154 154 _____________P -1 12.0000 -76.0000 TD 30 0 0
1887326N12284 1887 72 NA CS NOT_NAMED 1887-11-21 18:00:00 TS 12.0000 -76.0000 spur-merge 154 154 _____________O -1 12.0000 -76.0000 TD 30 0 0
1887326N12284 1887 72 NA CS NOT_NAMED 1887-11-21 21:00:00 TS 12.0000 -76.0000 spur-merge 154 154 _____________P -1 12.0000 -76.0000 TD 30 0 0
1887326N12284 1887 72 NA CS NOT_NAMED 1887-11-22 00:00:00 TS 12.0000 -76.0000 spur-merge 154 154 _____________O -1 12.0000 -76.0000 TD 30 0 0
1887326N12284 1887 72 NA CS NOT_NAMED 1887-11-22 03:00:00 TS 12.0000 -76.0000 spur-merge 154 154 _____________P -1 12.0000 -76.0000 TD 30 0 0
1887326N12284 1887 72 NA CS NOT_NAMED 1887-11-22 06:00:00 TS 12.0000 -76.0000 spur-merge 154 154 _____________O -1 12.0000 -76.0000 TD 30 0 0
1887326N12284 1887 72 NA CS NOT_NAMED 1887-11-22 09:00:00 TS 11.9925 -75.9925 spur-merge 154 154 _____________P -1 11.9925 -75.9925 TD 30 0 0
1887326N12284 1887 72 NA CS NOT_NAMED 1887-11-22 12:00:00 TS 12.0000 -76.0000 spur-merge 154 154 _____________O -1 12.0000 -76.0000 TD 30 1 309
1887326N12284 1887 72 NA CS NOT_NAMED 1887-11-22 15:00:00 TS 12.0425 -76.0425 spur-merge 154 154 _____________P -1 12.0425 -76.0425 TD 30 1 317
1887326N12284 1887 72 NA CS NOT_NAMED 1887-11-22 18:00:00 TS 12.1000 -76.1000 spur-merge 169 169 _____________O -1 12.1000 -76.1000 TD 30 2 317
1887326N12284 1887 72 NA CS NOT_NAMED 1887-11-22 21:00:00 TS 12.1500 -76.1500 spur-merge 179 175 _____________P -1 12.1500 -76.1500 TD 30 1 317
1887326N12284 1887 72 NA CS NOT_NAMED 1887-11-23 00:00:00 TS 12.2000 -76.2000 spur-merge 184 184 _____________O -1 12.2000 -76.2000 TD 30 1 317
1887326N12284 1887 72 NA CS NOT_NAMED 1887-11-23 03:00:00 TS 12.2500 -76.2500 spur-merge 194 184 _____________P -1 12.2500 -76.2500 TD 30 1 317
1887326N12284 1887 72 NA CS NOT_NAMED 1887-11-23 06:00:00 TS 12.3000 -76.3000 spur-merge 200 200 _____________O -1 12.3000 -76.3000 TD 30 1 317
1887326N12284 1887 72 NA CS NOT_NAMED 1887-11-23 09:00:00 TS 12.3500 -76.3500 spur-merge 209 206 _____________P -1 12.3500 -76.3500 TD 30 1 317
1887326N12284 1887 72 NA CS NOT_NAMED 1887-11-23 12:00:00 TS 12.4000 -76.4000 spur-merge 215 215 _____________O -1 12.4000 -76.4000 TD 30 1 320
1887326N12284 1887 72 NA CS NOT_NAMED 1887-11-23 15:00:00 TS 12.4500 -76.4425 spur-merge 215 215 _____________P -1 12.4500 -76.4425 TD 30 1 317
1887326N12284 1887 72 NA CS NOT_NAMED 1887-11-23 18:00:00 TS 12.5000 -76.5000 spur-merge 230 230 _____________O -1 12.5000 -76.5000 TD 30 2 305
1887326N12284 1887 72 NA CS NOT_NAMED 1887-11-23 21:00:00 TS 12.5425 -76.5850 spur-merge 237 237 _____________P -1 12.5425 -76.5850 TD 30 2 297
1887326N12284 1887 72 NA CS NOT_NAMED 1887-11-24 00:00:00 TS 12.6000 -76.7000 spur-merge 252 252 _____________O -1 12.6000 -76.7000 TD 30 3 300
1887326N12284 1887 72 NA CS NOT_NAMED 1887-11-24 03:00:00 TS 12.6925 -76.8500 spur-merge 268 268 _____________P -1 12.6925 -76.8500 TD 30 4 304
1887326N12284 1887 72 NA CS NOT_NAMED 1887-11-24 06:00:00 TS 12.8000 -77.0000 spur-merge 290 290 _____________O -1 12.8000 -77.0000 TD 30 3 306
1887326N12284 1887 72 NA CS NOT_NAMED 1887-11-24 09:00:00 TS 12.8850 -77.1225 spur-merge 306 306 _____________P -1 12.8850 -77.1225 TD 30 3 316
1887326N12284 1887 72 NA CS NOT_NAMED 1887-11-24 12:00:00 TS 13.0000 -77.2000 spur-merge 321 321 _____________O -1 13.0000 -77.2000 TD 30 3 344
1887326N12284 1887 72 NA CS NOT_NAMED 1887-11-24 15:00:00 TS 13.1775 -77.2075 spur-merge 339 339 _____________P -1 13.1775 -77.2075 TD 30 4 0
1887326N12284 1887 72 NA CS NOT_NAMED 1887-11-24 18:00:00 TS 13.4000 -77.2000 spur-merge 357 357 _____________O -1 13.4000 -77.2000 TD 30 5 353
1887326N12284 1887 72 NA CS NOT_NAMED 1887-11-24 21:00:00 TS 13.6425 -77.2574 spur-merge 381 381 _____________P -1 13.6425 -77.2574 TD 32 5 349
1887326N12284 1887 72 NA CS NOT_NAMED 1887-11-25 00:00:00 TS 13.9000 -77.3000 spur-merge 409 403 _____________O -1 13.9000 -77.3000 TS 35 5 0
1887326N12284 1887 72 NA CS NOT_NAMED 1887-11-25 03:00:00 TS 14.1575 -77.2576 spur-merge 391 369 _____________P -1 14.1575 -77.2576 TS 35 5 11
1887326N12284 1887 72 NA CS NOT_NAMED 1887-11-25 06:00:00 TS 14.4000 -77.2000 spur-merge 369 346 _____________O -1 14.4000 -77.2000 TS 35 5 7
1887326N12284 1887 72 NA CS NOT_NAMED 1887-11-25 09:00:00 TS 14.6150 -77.2000 spur-merge 346 324 _____________P -1 14.6150 -77.2000 TS 37 4 0
1887326N12284 1887 72 NA CS NOT_NAMED 1887-11-25 12:00:00 TS 14.8000 -77.2000 spur-merge 324 313 _____________O -1 14.8000 -77.2000 TS 40 3 7
1887326N12284 1887 72 NA CS NOT_NAMED 1887-11-25 15:00:00 TS 14.9575 -77.1650 spur-merge 302 291 _____________P -1 14.9575 -77.1650 TS 40 3 17
1887326N12284 1887 72 NA CS NOT_NAMED 1887-11-25 18:00:00 TS 15.1000 -77.1000 spur-merge 291 279 _____________O -1 15.1000 -77.1000 TS 40 3 25
1887326N12284 1887 72 NA CS NOT_NAMED 1887-11-25 21:00:00 TS 15.2500 -77.0300 spur-merge 280 259 _____________P -1 15.2500 -77.0300 TS 42 4 33
1887326N12284 1887 72 NA CS NOT_NAMED 1887-11-26 00:00:00 TS 15.4000 -76.9000 spur-merge 259 249 _____________O -1 15.4000 -76.9000 TS 45 5 50
1887326N12284 1887 72 NA CS NOT_NAMED 1887-11-26 03:00:00 TS 15.5501 -76.6650 spur-merge 240 235 _____________P -1 15.5501 -76.6650 TS 47 6 58
1887326N12284 1887 72 NA CS NOT_NAMED 1887-11-26 06:00:00 TS 15.7000 -76.4000 spur-merge 239 233 _____________O -1 15.7000 -76.4000 TS 50 5 59
1887326N12284 1887 72 NA CS NOT_NAMED 1887-11-26 09:00:00 TS 15.8275 -76.1924 spur-merge 235 213 _____________P -1 15.8275 -76.1924 TS 52 5 52
1887326N12284 1887 72 NA CS NOT_NAMED 1887-11-26 12:00:00 TS 16.0000 -76.0000 spur-merge 213 184 _____________O -1 16.0000 -76.0000 TS 55 6 40
1887326N12284 1887 72 NA CS NOT_NAMED 1887-11-26 15:00:00 TS 16.2850 -75.8000 spur-merge 184 158 _____________P -1 16.2850 -75.8000 TS 57 7 33
1887326N12284 1887 72 NA CS NOT_NAMED 1887-11-26 18:00:00 TS 16.6000 -75.6000 spur-merge 158 143 _____________O -1 16.6000 -75.6000 TS 60 7 34
1887326N12284 1887 72 NA CS NOT_NAMED 1887-11-26 21:00:00 TS 16.8500 -75.3999 spur-merge 149 138 _____________P -1 16.8500 -75.3999 TS 60 6 38
1887326N12284 1887 72 NA CS NOT_NAMED 1887-11-27 00:00:00 TS 17.1000 -75.2000 spur-merge 138 119 _____________O -1 17.1000 -75.2000 TS 60 7 35
1887326N12284 1887 72 NA CS NOT_NAMED 1887-11-27 03:00:00 TS 17.4000 -74.9925 spur-merge 119 79 _____________P -1 17.4000 -74.9925 TS 62 7 32
1887326N12284 1887 72 NA CS NOT_NAMED 1887-11-27 06:00:00 TS 17.7000 -74.8000 spur-merge 79 54 _____________O -1 17.7000 -74.8000 HU 65 6 30
1887326N12284 1887 72 NA CS NOT_NAMED 1887-11-27 09:00:00 TS 17.9349 -74.6647 spur-merge 54 15 _____________P -1 17.9349 -74.6647 HU 67 6 30
1887326N12284 1887 72 NA CS NOT_NAMED 1887-11-27 12:00:00 TS 18.2000 -74.5000 spur-merge 15 0 _____________O -1 18.2000 -74.5000 HU 70 8 34
1887326N12284 1887 72 NA NA NOT_NAMED 1887-11-27 15:00:00 TS 18.5700 -74.2225 spur-merge 0 0 _____________P -1 18.5700 -74.2225 HU 70 10 35
1887326N12284 1887 72 NA CS NOT_NAMED 1887-11-27 18:00:00 TS 19.0000 -73.9000 spur-merge 45 30 _____________O -1 19.0000 -73.9000 HU 70 11 34
1887326N12284 1887 72 NA CS NOT_NAMED 1887-11-27 21:00:00 TS 19.4500 -73.5999 spur-merge 30 0 _____________P -1 19.4500 -73.5999 HU 70 11 32
1887326N12284 1887 72 NA NA NOT_NAMED 1887-11-28 00:00:00 TS 19.9000 -73.3000 spur-merge 11 11 _____________O -1 19.9000 -73.3000 HU 70 10 34
1887326N12284 1887 72 NA NA NOT_NAMED 1887-11-28 03:00:00 TS 20.3000 -72.9923 spur-merge 44 44 _____________P -1 20.3000 -72.9923 HU 70 10 35
1887326N12284 1887 72 NA NA NOT_NAMED 1887-11-28 06:00:00 TS 20.7000 -72.7000 spur-merge 53 47 _____________O -1 20.7000 -72.7000 HU 70 10 31
1887326N12284 1887 72 NA NA NOT_NAMED 1887-11-28 09:00:00 TS 21.1950 -72.4202 spur-merge 62 62 _____________P -1 21.1950 -72.4202 HU 70 10 27
1887326N12284 1887 72 NA NA NOT_NAMED 1887-11-28 12:00:00 TS 21.6000 -72.2000 spur-merge 94 94 _____________O -1 21.6000 -72.2000 HU 70 7 29
1887326N12284 1887 72 NA NA NOT_NAMED 1887-11-28 15:00:00 TS 21.7599 -72.0772 spur-merge 114 114 _____________P -1 21.7599 -72.0772 HU 70 3 43
1887326N12284 1887 72 NA NA NOT_NAMED 1887-11-28 18:00:00 TS 21.8000 -72.0000 spur-merge 123 123 _____________O -1 21.8000 -72.0000 HU 70 2 60
1887326N12284 1887 72 NA NA NOT_NAMED 1887-11-28 21:00:00 TS 21.8500 -71.9075 spur-merge 132 132 _____________P -1 21.8500 -71.9075 HU 70 2 61
1887326N12284 1887 72 NA NA NOT_NAMED 1887-11-29 00:00:00 TS 21.9000 -71.8000 spur-merge 146 146 _____________O -1 21.9000 -71.8000 HU 70 3 58
1887326N12284 1887 72 NA NA NOT_NAMED 1887-11-29 03:00:00 TS 22.0000 -71.6500 spur-merge 161 161 _____________P -1 22.0000 -71.6500 HU 70 3 54
1887326N12284 1887 72 NA NA NOT_NAMED 1887-11-29 06:00:00 TS 22.1000 -71.5000 spur-merge 184 184 _____________O -1 22.1000 -71.5000 HU 70 3 58
1887326N12284 1887 72 NA NA NOT_NAMED 1887-11-29 09:00:00 TS 22.1500 -71.3924 spur-merge 193 193 _____________P -1 22.1500 -71.3924 HU 70 2 61
1887326N12284 1887 72 NA NA NOT_NAMED 1887-11-29 12:00:00 TS 22.2000 -71.3000 spur-merge 208 208 _____________O -1 22.2000 -71.3000 HU 70 2 49
1887326N12284 1887 72 NA NA NOT_NAMED 1887-11-29 15:00:00 TS 22.3000 -71.2075 spur-merge 222 222 _____________P -1 22.3000 -71.2075 HU 70 3 43
1887326N12284 1887 72 NA NA NOT_NAMED 1887-11-29 18:00:00 TS 22.4000 -71.1000 spur-merge 237 237 _____________O -1 22.4000 -71.1000 HU 70 3 57
1887326N12284 1887 72 NA NA NOT_NAMED 1887-11-29 21:00:00 TS 22.4500 -70.9575 spur-merge 252 252 _____________P -1 22.4500 -70.9575 HU 70 3 70
1887326N12284 1887 72 NA NA NOT_NAMED 1887-11-30 00:00:00 TS 22.5000 -70.8000 spur-merge 269 269 _____________O -1 22.5000 -70.8000 HU 70 3 63
1887326N12284 1887 72 NA NA NOT_NAMED 1887-11-30 03:00:00 TS 22.6000 -70.6425 spur-merge 292 292 _____________P -1 22.6000 -70.6425 HU 70 3 54
1887326N12284 1887 72 NA NA NOT_NAMED 1887-11-30 06:00:00 TS 22.7000 -70.5000 spur-merge 307 307 _____________O -1 22.7000 -70.5000 HU 70 2 58
1887326N12284 1887 72 NA NA NOT_NAMED 1887-11-30 09:00:00 TS 22.7274 -70.4223 spur-merge 316 316 _____________P -1 22.7274 -70.4223 HU 70 2 61
1887326N12284 1887 72 NA NA NOT_NAMED 1887-11-30 12:00:00 TS 22.8000 -70.3000 spur-merge 330 330 _____________O -1 22.8000 -70.3000 HU 70 5 50
1887326N12284 1887 72 NA NA NOT_NAMED 1887-11-30 15:00:00 TS 23.0276 -70.0302 spur-merge 363 363 _____________P -1 23.0276 -70.0302 HU 67 7 48
1887326N12284 1887 72 NA NA NOT_NAMED 1887-11-30 18:00:00 TS 23.3000 -69.7000 spur-merge 402 402 _____________O -1 23.3000 -69.7000 HU 65 7 50
1887326N12284 1887 72 NA NA NOT_NAMED 1887-11-30 21:00:00 TS 23.5073 -69.4148 spur-merge 431 431 _____________P -1 23.5073 -69.4148 HU 65 7 54
1887326N12284 1887 72 NA NA NOT_NAMED 1887-12-01 00:00:00 TS 23.7000 -69.1000 spur-merge 462 462 _____________O -1 23.7000 -69.1000 HU 65 8 58
1887326N12284 1887 72 NA NA NOT_NAMED 1887-12-01 03:00:00 TS 23.9000 -68.7149 spur-merge 498 498 _____________P -1 23.9000 -68.7149 HU 65 8 61
1887326N12284 1887 72 NA NA NOT_NAMED 1887-12-01 06:00:00 TS 24.1000 -68.3000 spur-merge 532 532 _____________O -1 24.1000 -68.3000 HU 65 9 62
1887326N12284 1887 72 NA NA NOT_NAMED 1887-12-01 09:00:00 TS 24.3000 -67.8849 spur-merge 568 568 _____________P -1 24.3000 -67.8849 HU 65 8 61
1887326N12284 1887 72 NA NA NOT_NAMED 1887-12-01 12:00:00 TS 24.5000 -67.5000 spur-merge 605 605 _____________O -1 24.5000 -67.5000 HU 65 8 58
1887326N12284 1887 72 NA NA NOT_NAMED 1887-12-01 15:00:00 TS 24.6998 -67.1848 spur-merge 638 638 _____________P -1 24.6998 -67.1848 HU 65 7 54
1887326N12284 1887 72 NA NA NOT_NAMED 1887-12-01 18:00:00 TS 24.9000 -66.9000 spur-merge 672 672 _____________O -1 24.9000 -66.9000 HU 65 7 53
1887326N12284 1887 72 NA NA NOT_NAMED 1887-12-01 21:00:00 TS 25.0999 -66.5999 spur-merge 705 705 _____________P -1 25.0999 -66.5999 HU 65 7 54
1887326N12284 1887 72 NA NA NOT_NAMED 1887-12-02 00:00:00 TS 25.3000 -66.3000 spur-merge 738 738 _____________O -1 25.3000 -66.3000 HU 65 7 53
1887326N12284 1887 72 NA NA NOT_NAMED 1887-12-02 03:00:00 TS 25.5074 -66.0074 spur-merge 771 771 _____________P -1 25.5074 -66.0074 HU 65 7 54
1887326N12284 1887 72 NA NA NOT_NAMED 1887-12-02 06:00:00 TS 25.7000 -65.7000 spur-merge 805 805 _____________O -1 25.7000 -65.7000 HU 65 7 61
1887326N12284 1887 72 NA NA NOT_NAMED 1887-12-02 09:00:00 TS 25.8349 -65.3646 spur-merge 827 827 _____________P -1 25.8349 -65.3646 HU 65 7 65
1887326N12284 1887 72 NA NA NOT_NAMED 1887-12-02 12:00:00 TS 26.0000 -65.0000 spur-merge 851 851 _____________O -1 26.0000 -65.0000 HU 65 8 57
1887326N12284 1887 72 NA NA NOT_NAMED 1887-12-02 15:00:00 TS 26.2775 -64.6076 spur-merge 889 889 _____________P -1 26.2775 -64.6076 HU 65 9 50
1887326N12284 1887 72 NA NA NOT_NAMED 1887-12-02 18:00:00 ET 26.6000 -64.2000 spur-merge 927 927 _____________O -1 26.6000 -64.2000 EX 65 10 49
1887326N12284 1887 72 NA NA NOT_NAMED 1887-12-02 21:00:00 ET 26.8999 -63.7998 spur-merge 967 967 _____________P -1 26.8999 -63.7998 EX 65 9 50
1887326N12284 1887 72 NA NA NOT_NAMED 1887-12-03 00:00:00 ET 27.2000 -63.4000 spur-merge 1009 1009 _____________O -1 27.2000 -63.4000 EX 65 9 50
1887326N12284 1887 72 NA NA NOT_NAMED 1887-12-03 03:00:00 ET 27.5074 -62.9999 spur-merge 1051 1051 _____________P -1 27.5074 -62.9999 EX 62 9 50
1887326N12284 1887 72 NA NA NOT_NAMED 1887-12-03 06:00:00 ET 27.8000 -62.6000 spur-merge 1094 1094 _____________O -1 27.8000 -62.6000 EX 60 9 54
1887326N12284 1887 72 NA NA NOT_NAMED 1887-12-03 09:00:00 ET 28.0124 -62.1992 spur-merge 1127 1127 _____________P -1 28.0124 -62.1992 EX 60 9 55
1887326N12284 1887 72 NA NA NOT_NAMED 1887-12-03 12:00:00 ET 28.3000 -61.8000 spur-merge 1172 1172 _____________O -1 28.3000 -61.8000 EX 60 11 41
1887326N12284 1887 72 NA NA NOT_NAMED 1887-12-03 15:00:00 ET 28.8124 -61.4002 spur-merge 1238 1238 _____________P -1 28.8124 -61.4002 EX 60 13 33
1887326N12284 1887 72 NA NA NOT_NAMED 1887-12-03 18:00:00 ET 29.4000 -61.0000 spur-merge 1314 1314 _____________O -1 29.4000 -61.0000 EX 60 14 31
1887326N12284 1887 72 NA NA NOT_NAMED 1887-12-03 21:00:00 ET 29.9749 -60.6004 spur-merge 1391 1391 _____________P -1 29.9749 -60.6004 EX 60 12 35
1887326N12284 1887 72 NA NA NOT_NAMED 1887-12-04 00:00:00 ET 30.4000 -60.2000 spur-merge 1447 1447 _____________O -1 30.4000 -60.2000 EX 60 9 51
1887326N12284 1887 72 NA NA NOT_NAMED 1887-12-04 03:00:00 ET 30.5248 -59.8067 spur-merge 1473 1473 _____________P -1 30.5248 -59.8067 EX 60 7 82
1887326N12284 1887 72 NA NA NOT_NAMED 1887-12-04 06:00:00 ET 30.5000 -59.4000 spur-merge 1489 1489 _____________O -1 30.5000 -59.4000 EX 60 8 90
1887326N12284 1887 72 NA NA NOT_NAMED 1887-12-04 09:00:00 ET 30.5304 -58.8524 spur-merge 1511 1511 _____________P -1 30.5304 -58.8524 EX 60 8 90
1887326N12284 1887 72 NA NA NOT_NAMED 1887-12-04 12:00:00 ET 30.5000 -58.5000 spur-merge 1529 1515 _____________O -1 30.5000 -58.5000 EX 60 2 129
1887326N12284 1887 72 NA NA NOT_NAMED 1887-12-04 15:00:00 ET 30.3950 -58.6602 spur-merge 1510 1477 _____________P -1 30.3950 -58.6602 EX 60 5 235
1887326N12284 1887 72 NA NA NOT_NAMED 1887-12-04 18:00:00 ET 30.2000 -59.0000 spur-merge 1477 1448 _____________O -1 30.2000 -59.0000 EX 60 7 225
1887326N12284 1887 72 NA NA NOT_NAMED 1887-12-04 21:00:00 ET 29.9375 -59.1952 spur-merge 1438 1404 _____________P -1 29.9375 -59.1952 EX 60 7 203
1887326N12284 1887 72 NA NA NOT_NAMED 1887-12-05 00:00:00 ET 29.6000 -59.3000 spur-merge 1404 1365 _____________O -1 29.6000 -59.3000 EX 60 7 186
1887326N12284 1887 72 NA NA NOT_NAMED 1887-12-05 03:00:00 ET 29.2150 -59.2873 spur-merge 1365 1331 _____________P -1 29.2150 -59.2873 EX 60 8 174
1887326N12284 1887 72 NA NA NOT_NAMED 1887-12-05 06:00:00 ET 28.8000 -59.2000 spur-merge 1331 1298 _____________O -1 28.8000 -59.2000 EX 60 9 171
1887326N12284 1887 72 NA NA NOT_NAMED 1887-12-05 09:00:00 ET 28.3399 -59.1299 spur-merge 1289 1266 _____________P -1 28.3399 -59.1299 EX 60 8 167
1887326N12284 1887 72 NA NA NOT_NAMED 1887-12-05 12:00:00 ET 28.0000 -59.0000 spur-merge 1266 1262 _____________O -1 28.0000 -59.0000 EX 60 5 144
1887326N12284 1887 72 NA NA NOT_NAMED 1887-12-05 15:00:00 ET 27.9026 -58.7725 spur-merge 1268 1268 _____________P -1 27.9026 -58.7725 EX 60 4 90
1887326N12284 1887 72 NA NA NOT_NAMED 1887-12-05 18:00:00 ET 28.0000 -58.5000 spur-merge 1294 1294 _____________O -1 28.0000 -58.5000 EX 60 6 55
1887326N12284 1887 72 NA NA NOT_NAMED 1887-12-05 21:00:00 ET 28.2275 -58.2502 spur-merge 1323 1323 _____________P -1 28.2275 -58.2502 EX 60 7 41
1887326N12284 1887 72 NA NA NOT_NAMED 1887-12-06 00:00:00 ET 28.5000 -58.0000 spur-merge 1368 1368 _____________O -1 28.5000 -58.0000 EX 60 6 45
1887326N12284 1887 72 NA NA NOT_NAMED 1887-12-06 03:00:00 ET 28.6725 -57.7499 spur-merge 1403 1403 _____________P -1 28.6725 -57.7499 EX 60 5 56
1887326N12284 1887 72 NA NA NOT_NAMED 1887-12-06 06:00:00 ET 28.8000 -57.5000 spur-merge 1424 1424 _____________O -1 28.8000 -57.5000 EX 60 4 71
1887326N12284 1887 72 NA NA NOT_NAMED 1887-12-06 09:00:00 ET 28.8095 -57.3082 spur-merge 1436 1436 _____________P -1 28.8095 -57.3082 EX 60 5 66
1887326N12284 1887 72 NA NA NOT_NAMED 1887-12-06 12:00:00 ET 29.0000 -57.0000 spur-merge 1471 1471 _____________O -1 29.0000 -57.0000 EX 60 12 43
1887326N12284 1887 72 NA NA NOT_NAMED 1887-12-06 15:00:00 ET 29.6530 -56.4040 spur-merge 1568 1568 _____________P -1 29.6530 -56.4040 EX 60 19 37
1887326N12284 1887 72 NA NA NOT_NAMED 1887-12-06 18:00:00 ET 30.5000 -55.7000 spur-merge 1676 1631 _____________O -1 30.5000 -55.7000 EX 60 20 35
1887326N12284 1887 72 NA NA NOT_NAMED 1887-12-06 21:00:00 ET 31.2495 -55.0987 spur-merge 1635 1575 _____________P -1 31.2495 -55.0987 EX 60 18 34
1887326N12284 1887 72 NA NA NOT_NAMED 1887-12-07 00:00:00 ET 32.0000 -54.5000 spur-merge 1575 1522 _____________O -1 32.0000 -54.5000 EX 60 18 35
1887326N12284 1887 72 NA NA NOT_NAMED 1887-12-07 03:00:00 ET 32.7499 -53.8493 spur-merge 1525 1457 _____________P -1 32.7508 -53.8650 EX 60 19 36
1887326N12284 1887 72 NA NA NOT_NAMED 1887-12-07 06:00:00 ET 33.5000 -53.2000 spur-merge 1457 1369 _____________O -1 33.5000 -53.2000 EX 60 19 34
1887326N12284 1887 72 NA NA NOT_NAMED 1887-12-07 09:00:00 ET 34.3023 -52.5777 spur-merge 1369 ______________ -1 EX 19 33

IBTrACS Databaseについて

本データベースは、米国NOAAが公開する1842年以降の世界の熱帯低気圧のベストトラックデータアーカイブInternational Best Track Archive for Climate Stewardship (IBTrACS)を、ウェブで閲覧しやすい形式に変換したものです。

最終更新日:2021-10-25